Airfield :
LOGIN :

Register | Disclaimer

   EN    FR    IT 

 










Legend :    VFR   Marginal VFR   IFR   Intensive IFR   Very Intensive IFR
Visi :
Ceiling :
>= 8 km
>= 3000ft
5 to 8 km
1000 to 3000 ft
1500m to 5 km
500 to 1000 ft
800 to 1500m
200 to 500 ft
< 800m
< 200 ft
Symbols :   Thunderstorms  Fog  Heavy snow  Heavy precipitations  Wind > 20 kt
SIGMETs :     Misc.  Thunderstorms  Icing  Turbulence  Mountain Waves  Volcanic Ashes






- Airport Elevation : 741 ft
- IATA code : PED


LKPD - Pardubice AB

CURRENT METAR :
  • 162330Z 28012KT 9999 BKN029 OVC080 M04/M09 Q1017 RMK BLU

EXPIRED METARs :
  • 162300Z 28011KT 9999 BKN031 OVC080 M04/M09 Q1017 RMK BLU
  • 162230Z 28010KT 9999 FEW033 BKN080 M04/M09 Q1017 RMK BLU
  • 162200Z 28010KT CAVOK M04/M08 Q1017 RMK BLU
  • 162130Z 28011KT 9999 FEW035 OVC090 M04/M08 Q1018 RMK BLU
  • 162100Z 28011KT 9999 SCT033 OVC080 M04/M08 Q1018 RMK BLU

TAF TAF LKPD
Valid from the 16 at 18:00 until the 17 at 18:00 UTC


161700Z 1618/1718 27010KT 9999 BKN040
TEMPO 1618/1620 6000 SN OVC025
TEMPO 1706/1718 SCT045



MET'MAP, your aeronautical weather chart ! - Copyright ORBIFLY December 2007 - Disclaimer

ORBIFLY MET'MAP TEAM :

Programming & Development : Alexandra Zaïnal
Concept & original design : Baudouin d'Aumeries
Assistance for programming : Marc-Olivier Méhu
Technical & hardware support : Manuel Goepfert

Contact : metmap@orbifly.com




SOURCES & CREDITS :

   NOAA